sensor_id;sensor_type;location;lat;lon;timestamp;P1;durP1;ratioP1;P2;durP2;ratioP2
36353;SDS011;22383;51.114;13.666;2023-05-08T00:02:03;9.15;;;3.38;;
36353;SDS011;22383;51.114;13.666;2023-05-08T00:04:33;8.82;;;4.55;;
36353;SDS011;22383;51.114;13.666;2023-05-08T00:09:36;8.00;;;3.58;;
36353;SDS011;22383;51.114;13.666;2023-05-08T00:12:04;10.73;;;4.10;;
36353;SDS011;22383;51.114;13.666;2023-05-08T00:14:43;6.30;;;3.38;;
36353;SDS011;22383;51.114;13.666;2023-05-08T00:17:10;10.50;;;4.05;;
36353;SDS011;22383;51.114;13.666;2023-05-08T00:19:42;7.93;;;4.07;;
36353;SDS011;22383;51.114;13.666;2023-05-08T00:22:12;6.63;;;4.43;;
36353;SDS011;22383;51.114;13.666;2023-05-08T00:24:46;6.35;;;3.88;;
36353;SDS011;22383;51.114;13.666;2023-05-08T00:27:13;9.75;;;4.20;;
36353;SDS011;22383;51.114;13.666;2023-05-08T00:29:46;8.43;;;3.88;;
36353;SDS011;22383;51.114;13.666;2023-05-08T00:32:23;9.25;;;4.38;;
36353;SDS011;22383;51.114;13.666;2023-05-08T00:34:51;9.07;;;3.83;;
36353;SDS011;22383;51.114;13.666;2023-05-08T00:37:26;9.65;;;4.35;;
36353;SDS011;22383;51.114;13.666;2023-05-08T00:42:29;6.68;;;3.83;;
36353;SDS011;22383;51.114;13.666;2023-05-08T00:45:03;7.47;;;4.03;;
36353;SDS011;22383;51.114;13.666;2023-05-08T00:47:34;12.18;;;5.28;;
36353;SDS011;22383;51.114;13.666;2023-05-08T00:50:09;11.57;;;5.10;;
36353;SDS011;22383;51.114;13.666;2023-05-08T00:52:40;8.70;;;4.13;;
36353;SDS011;22383;51.114;13.666;2023-05-08T00:55:11;8.88;;;3.47;;
36353;SDS011;22383;51.114;13.666;2023-05-08T00:57:39;7.72;;;4.63;;
36353;SDS011;22383;51.114;13.666;2023-05-08T01:00:07;7.63;;;4.32;;
36353;SDS011;22383;51.114;13.666;2023-05-08T01:02:36;8.18;;;4.28;;
36353;SDS011;22383;51.114;13.666;2023-05-08T01:05:07;7.18;;;3.90;;
36353;SDS011;22383;51.114;13.666;2023-05-08T01:07:37;8.02;;;3.60;;
36353;SDS011;22383;51.114;13.666;2023-05-08T01:10:05;7.70;;;3.97;;
36353;SDS011;22383;51.114;13.666;2023-05-08T01:15:42;11.90;;;4.97;;
36353;SDS011;22383;51.114;13.666;2023-05-08T01:18:27;8.15;;;4.25;;
36353;SDS011;22383;51.114;13.666;2023-05-08T01:21:11;8.18;;;4.07;;
36353;SDS011;22383;51.114;13.666;2023-05-08T01:30:36;10.13;;;4.60;;
36353;SDS011;22383;51.114;13.666;2023-05-08T01:32:39;7.88;;;3.97;;
36353;SDS011;22383;51.114;13.666;2023-05-08T01:40:55;9.23;;;4.25;;
36353;SDS011;22383;51.114;13.666;2023-05-08T01:43:49;7.18;;;3.97;;
36353;SDS011;22383;51.114;13.666;2023-05-08T01:46:23;10.10;;;4.45;;
36353;SDS011;22383;51.114;13.666;2023-05-08T01:48:55;10.48;;;5.18;;
36353;SDS011;22383;51.114;13.666;2023-05-08T01:51:27;7.45;;;4.63;;
36353;SDS011;22383;51.114;13.666;2023-05-08T01:54:02;9.35;;;4.82;;
36353;SDS011;22383;51.114;13.666;2023-05-08T01:56:38;8.15;;;4.15;;
36353;SDS011;22383;51.114;13.666;2023-05-08T01:59:14;10.32;;;5.25;;
36353;SDS011;22383;51.114;13.666;2023-05-08T02:01:53;8.63;;;4.30;;
36353;SDS011;22383;51.114;13.666;2023-05-08T02:04:23;8.30;;;4.82;;
36353;SDS011;22383;51.114;13.666;2023-05-08T02:06:55;7.38;;;3.47;;
36353;SDS011;22383;51.114;13.666;2023-05-08T02:09:25;9.75;;;4.25;;
36353;SDS011;22383;51.114;13.666;2023-05-08T02:12:00;9.23;;;4.88;;
36353;SDS011;22383;51.114;13.666;2023-05-08T02:14:30;8.80;;;4.78;;
36353;SDS011;22383;51.114;13.666;2023-05-08T02:17:00;11.50;;;4.78;;
36353;SDS011;22383;51.114;13.666;2023-05-08T02:19:32;9.27;;;4.53;;
36353;SDS011;22383;51.114;13.666;2023-05-08T02:22:02;8.88;;;4.93;;
36353;SDS011;22383;51.114;13.666;2023-05-08T02:24:32;10.52;;;4.30;;
36353;SDS011;22383;51.114;13.666;2023-05-08T02:27:02;6.88;;;3.83;;
36353;SDS011;22383;51.114;13.666;2023-05-08T02:29:38;8.40;;;4.22;;
36353;SDS011;22383;51.114;13.666;2023-05-08T02:32:06;8.30;;;4.82;;
36353;SDS011;22383;51.114;13.666;2023-05-08T02:34:36;12.00;;;5.20;;
36353;SDS011;22383;51.114;13.666;2023-05-08T02:37:19;9.07;;;3.97;;
36353;SDS011;22383;51.114;13.666;2023-05-08T02:39:47;10.07;;;5.40;;
36353;SDS011;22383;51.114;13.666;2023-05-08T02:42:18;9.32;;;5.20;;
36353;SDS011;22383;51.114;13.666;2023-05-08T02:44:49;9.13;;;4.28;;
36353;SDS011;22383;51.114;13.666;2023-05-08T02:52:46;8.20;;;4.28;;
36353;SDS011;22383;51.114;13.666;2023-05-08T02:58:21;9.35;;;4.40;;
36353;SDS011;22383;51.114;13.666;2023-05-08T03:04:07;7.35;;;4.32;;
36353;SDS011;22383;51.114;13.666;2023-05-08T03:06:44;13.27;;;4.97;;
36353;SDS011;22383;51.114;13.666;2023-05-08T03:09:15;12.00;;;5.30;;
36353;SDS011;22383;51.114;13.666;2023-05-08T03:12:08;10.10;;;5.07;;
36353;SDS011;22383;51.114;13.666;2023-05-08T03:14:52;11.60;;;4.53;;
36353;SDS011;22383;51.114;13.666;2023-05-08T03:17:23;8.95;;;4.28;;
36353;SDS011;22383;51.114;13.666;2023-05-08T03:19:54;10.05;;;4.47;;
36353;SDS011;22383;51.114;13.666;2023-05-08T03:22:33;8.95;;;4.63;;
36353;SDS011;22383;51.114;13.666;2023-05-08T03:25:03;12.23;;;5.20;;
36353;SDS011;22383;51.114;13.666;2023-05-08T03:27:34;13.70;;;5.18;;
36353;SDS011;22383;51.114;13.666;2023-05-08T03:30:06;8.98;;;4.43;;
36353;SDS011;22383;51.114;13.666;2023-05-08T03:35:13;12.05;;;5.47;;
36353;SDS011;22383;51.114;13.666;2023-05-08T03:37:42;10.70;;;5.22;;
36353;SDS011;22383;51.114;13.666;2023-05-08T03:40:12;9.82;;;4.43;;
36353;SDS011;22383;51.114;13.666;2023-05-08T03:42:49;11.32;;;5.20;;
36353;SDS011;22383;51.114;13.666;2023-05-08T03:45:17;9.23;;;4.78;;
36353;SDS011;22383;51.114;13.666;2023-05-08T03:47:50;8.40;;;4.20;;
36353;SDS011;22383;51.114;13.666;2023-05-08T03:50:24;10.85;;;5.13;;
36353;SDS011;22383;51.114;13.666;2023-05-08T03:52:55;10.32;;;4.80;;
36353;SDS011;22383;51.114;13.666;2023-05-08T03:55:25;9.25;;;4.72;;
36353;SDS011;22383;51.114;13.666;2023-05-08T03:58:04;7.57;;;3.45;;
36353;SDS011;22383;51.114;13.666;2023-05-08T04:00:42;11.13;;;4.78;;
36353;SDS011;22383;51.114;13.666;2023-05-08T04:03:40;10.18;;;4.75;;
36353;SDS011;22383;51.114;13.666;2023-05-08T04:06:22;10.02;;;4.50;;
36353;SDS011;22383;51.114;13.666;2023-05-08T04:09:22;9.30;;;4.55;;
36353;SDS011;22383;51.114;13.666;2023-05-08T04:14:36;7.55;;;4.15;;
36353;SDS011;22383;51.114;13.666;2023-05-08T04:17:10;10.77;;;4.28;;
36353;SDS011;22383;51.114;13.666;2023-05-08T04:19:44;8.50;;;4.35;;
36353;SDS011;22383;51.114;13.666;2023-05-08T04:22:15;10.45;;;4.55;;
36353;SDS011;22383;51.114;13.666;2023-05-08T04:24:47;8.60;;;4.40;;
36353;SDS011;22383;51.114;13.666;2023-05-08T04:27:17;11.85;;;4.82;;
36353;SDS011;22383;51.114;13.666;2023-05-08T04:29:48;11.55;;;4.90;;
36353;SDS011;22383;51.114;13.666;2023-05-08T04:32:16;9.90;;;4.60;;
36353;SDS011;22383;51.114;13.666;2023-05-08T04:37:21;6.60;;;3.72;;
36353;SDS011;22383;51.114;13.666;2023-05-08T04:39:55;8.98;;;4.28;;
36353;SDS011;22383;51.114;13.666;2023-05-08T04:42:30;9.02;;;4.25;;
36353;SDS011;22383;51.114;13.666;2023-05-08T04:45:03;10.15;;;4.78;;
36353;SDS011;22383;51.114;13.666;2023-05-08T04:47:34;7.57;;;4.90;;
36353;SDS011;22383;51.114;13.666;2023-05-08T04:50:09;9.10;;;4.13;;
36353;SDS011;22383;51.114;13.666;2023-05-08T04:52:40;8.77;;;4.15;;
36353;SDS011;22383;51.114;13.666;2023-05-08T04:55:07;9.43;;;3.72;;
36353;SDS011;22383;51.114;13.666;2023-05-08T04:57:38;7.50;;;4.22;;
36353;SDS011;22383;51.114;13.666;2023-05-08T05:00:13;8.85;;;4.05;;
36353;SDS011;22383;51.114;13.666;2023-05-08T05:02:46;7.43;;;3.92;;
36353;SDS011;22383;51.114;13.666;2023-05-08T05:05:16;7.85;;;4.25;;
36353;SDS011;22383;51.114;13.666;2023-05-08T05:07:44;11.07;;;4.03;;
36353;SDS011;22383;51.114;13.666;2023-05-08T05:12:39;7.78;;;2.72;;
36353;SDS011;22383;51.114;13.666;2023-05-08T05:15:07;5.20;;;2.72;;
36353;SDS011;22383;51.114;13.666;2023-05-08T05:17:39;4.85;;;3.28;;
36353;SDS011;22383;51.114;13.666;2023-05-08T05:20:19;8.35;;;3.13;;
36353;SDS011;22383;51.114;13.666;2023-05-08T05:22:51;4.75;;;2.70;;
36353;SDS011;22383;51.114;13.666;2023-05-08T05:25:21;5.05;;;2.67;;
36353;SDS011;22383;51.114;13.666;2023-05-08T05:27:48;5.32;;;3.22;;
36353;SDS011;22383;51.114;13.666;2023-05-08T05:30:27;5.65;;;3.38;;
36353;SDS011;22383;51.114;13.666;2023-05-08T05:32:55;6.10;;;3.05;;
36353;SDS011;22383;51.114;13.666;2023-05-08T05:35:23;5.03;;;3.13;;
36353;SDS011;22383;51.114;13.666;2023-05-08T05:37:52;4.25;;;2.40;;
36353;SDS011;22383;51.114;13.666;2023-05-08T05:40:20;4.95;;;3.03;;
36353;SDS011;22383;51.114;13.666;2023-05-08T05:42:48;4.30;;;2.72;;
36353;SDS011;22383;51.114;13.666;2023-05-08T05:45:19;7.55;;;2.35;;
36353;SDS011;22383;51.114;13.666;2023-05-08T05:47:49;3.78;;;2.58;;
36353;SDS011;22383;51.114;13.666;2023-05-08T05:50:27;4.28;;;2.45;;
36353;SDS011;22383;51.114;13.666;2023-05-08T05:52:55;6.85;;;3.08;;
36353;SDS011;22383;51.114;13.666;2023-05-08T05:55:26;4.45;;;2.53;;
36353;SDS011;22383;51.114;13.666;2023-05-08T05:57:54;5.43;;;2.95;;
36353;SDS011;22383;51.114;13.666;2023-05-08T06:00:21;5.70;;;2.35;;
36353;SDS011;22383;51.114;13.666;2023-05-08T06:02:53;2.50;;;1.90;;
36353;SDS011;22383;51.114;13.666;2023-05-08T06:05:24;5.85;;;2.42;;
36353;SDS011;22383;51.114;13.666;2023-05-08T06:07:53;7.25;;;2.42;;
36353;SDS011;22383;51.114;13.666;2023-05-08T06:10:23;4.00;;;2.28;;
36353;SDS011;22383;51.114;13.666;2023-05-08T06:12:50;6.50;;;2.47;;
36353;SDS011;22383;51.114;13.666;2023-05-08T06:15:18;4.43;;;2.10;;
36353;SDS011;22383;51.114;13.666;2023-05-08T06:17:49;4.32;;;2.08;;
36353;SDS011;22383;51.114;13.666;2023-05-08T06:20:17;3.72;;;2.42;;
36353;SDS011;22383;51.114;13.666;2023-05-08T06:22:44;5.05;;;2.40;;
36353;SDS011;22383;51.114;13.666;2023-05-08T06:25:12;4.47;;;1.95;;
36353;SDS011;22383;51.114;13.666;2023-05-08T06:27:39;5.57;;;2.22;;
36353;SDS011;22383;51.114;13.666;2023-05-08T06:30:09;5.07;;;2.38;;
36353;SDS011;22383;51.114;13.666;2023-05-08T06:32:36;4.07;;;1.90;;
36353;SDS011;22383;51.114;13.666;2023-05-08T06:35:04;3.97;;;2.30;;
36353;SDS011;22383;51.114;13.666;2023-05-08T06:37:32;3.83;;;2.35;;
36353;SDS011;22383;51.114;13.666;2023-05-08T06:40:00;4.30;;;2.42;;
36353;SDS011;22383;51.114;13.666;2023-05-08T06:42:38;4.00;;;1.73;;
36353;SDS011;22383;51.114;13.666;2023-05-08T06:45:06;4.32;;;2.53;;
36353;SDS011;22383;51.114;13.666;2023-05-08T06:47:37;3.35;;;2.10;;
36353;SDS011;22383;51.114;13.666;2023-05-08T06:50:05;4.38;;;1.70;;
36353;SDS011;22383;51.114;13.666;2023-05-08T06:52:36;3.17;;;2.00;;
36353;SDS011;22383;51.114;13.666;2023-05-08T06:55:05;5.47;;;2.72;;
36353;SDS011;22383;51.114;13.666;2023-05-08T06:57:32;11.55;;;2.35;;
36353;SDS011;22383;51.114;13.666;2023-05-08T06:59:59;6.85;;;1.85;;
36353;SDS011;22383;51.114;13.666;2023-05-08T07:02:26;3.38;;;2.10;;
36353;SDS011;22383;51.114;13.666;2023-05-08T07:04:57;2.15;;;1.45;;
36353;SDS011;22383;51.114;13.666;2023-05-08T07:07:24;2.83;;;1.75;;
36353;SDS011;22383;51.114;13.666;2023-05-08T07:09:52;3.88;;;2.33;;
36353;SDS011;22383;51.114;13.666;2023-05-08T07:12:22;3.22;;;2.10;;
36353;SDS011;22383;51.114;13.666;2023-05-08T07:14:49;3.75;;;2.03;;
36353;SDS011;22383;51.114;13.666;2023-05-08T07:17:17;4.75;;;2.30;;
36353;SDS011;22383;51.114;13.666;2023-05-08T07:19:48;4.50;;;2.30;;
36353;SDS011;22383;51.114;13.666;2023-05-08T07:22:16;4.30;;;2.33;;
36353;SDS011;22383;51.114;13.666;2023-05-08T07:24:45;2.97;;;2.05;;
36353;SDS011;22383;51.114;13.666;2023-05-08T07:27:12;5.32;;;1.92;;
36353;SDS011;22383;51.114;13.666;2023-05-08T07:29:40;3.28;;;2.00;;
36353;SDS011;22383;51.114;13.666;2023-05-08T07:32:10;3.33;;;1.45;;
36353;SDS011;22383;51.114;13.666;2023-05-08T07:34:42;2.33;;;1.65;;
36353;SDS011;22383;51.114;13.666;2023-05-08T07:37:13;3.60;;;1.83;;
36353;SDS011;22383;51.114;13.666;2023-05-08T07:39:46;3.72;;;1.42;;
36353;SDS011;22383;51.114;13.666;2023-05-08T07:42:13;2.42;;;1.77;;
36353;SDS011;22383;51.114;13.666;2023-05-08T07:44:41;2.10;;;1.27;;
36353;SDS011;22383;51.114;13.666;2023-05-08T07:47:21;2.60;;;1.40;;
36353;SDS011;22383;51.114;13.666;2023-05-08T07:49:52;2.42;;;1.50;;
36353;SDS011;22383;51.114;13.666;2023-05-08T07:52:22;2.05;;;1.80;;
36353;SDS011;22383;51.114;13.666;2023-05-08T07:54:49;1.98;;;1.38;;
36353;SDS011;22383;51.114;13.666;2023-05-08T07:57:19;5.10;;;1.55;;
36353;SDS011;22383;51.114;13.666;2023-05-08T07:59:48;1.60;;;1.20;;
36353;SDS011;22383;51.114;13.666;2023-05-08T08:02:21;2.10;;;1.23;;
36353;SDS011;22383;51.114;13.666;2023-05-08T08:04:49;3.75;;;1.92;;
36353;SDS011;22383;51.114;13.666;2023-05-08T08:07:16;1.77;;;0.98;;
36353;SDS011;22383;51.114;13.666;2023-05-08T08:09:57;1.42;;;1.33;;
36353;SDS011;22383;51.114;13.666;2023-05-08T08:12:25;1.33;;;0.93;;
36353;SDS011;22383;51.114;13.666;2023-05-08T08:17:20;13.35;;;1.15;;
36353;SDS011;22383;51.114;13.666;2023-05-08T08:19:48;1.20;;;0.90;;
36353;SDS011;22383;51.114;13.666;2023-05-08T08:22:15;1.20;;;1.02;;
36353;SDS011;22383;51.114;13.666;2023-05-08T08:24:44;1.42;;;1.05;;
36353;SDS011;22383;51.114;13.666;2023-05-08T08:27:11;1.45;;;0.80;;
36353;SDS011;22383;51.114;13.666;2023-05-08T08:29:42;1.50;;;0.88;;
36353;SDS011;22383;51.114;13.666;2023-05-08T08:32:11;2.35;;;1.00;;
36353;SDS011;22383;51.114;13.666;2023-05-08T08:34:38;2.00;;;1.50;;
36353;SDS011;22383;51.114;13.666;2023-05-08T08:37:05;1.52;;;0.93;;
36353;SDS011;22383;51.114;13.666;2023-05-08T08:39:34;2.83;;;1.27;;
36353;SDS011;22383;51.114;13.666;2023-05-08T08:42:02;8.85;;;1.67;;
36353;SDS011;22383;51.114;13.666;2023-05-08T08:44:29;2.70;;;1.33;;
36353;SDS011;22383;51.114;13.666;2023-05-08T08:46:59;1.98;;;1.17;;
36353;SDS011;22383;51.114;13.666;2023-05-08T08:49:40;2.63;;;1.45;;
36353;SDS011;22383;51.114;13.666;2023-05-08T08:55:20;1.15;;;0.85;;
36353;SDS011;22383;51.114;13.666;2023-05-08T08:57:54;5.40;;;1.00;;
36353;SDS011;22383;51.114;13.666;2023-05-08T09:00:29;1.75;;;0.88;;
36353;SDS011;22383;51.114;13.666;2023-05-08T09:03:00;1.85;;;1.27;;
36353;SDS011;22383;51.114;13.666;2023-05-08T09:05:59;1.35;;;1.10;;
36353;SDS011;22383;51.114;13.666;2023-05-08T09:08:29;2.38;;;1.23;;
36353;SDS011;22383;51.114;13.666;2023-05-08T09:10:56;1.83;;;1.15;;
36353;SDS011;22383;51.114;13.666;2023-05-08T09:13:24;2.05;;;1.15;;
36353;SDS011;22383;51.114;13.666;2023-05-08T09:15:54;1.63;;;1.02;;
36353;SDS011;22383;51.114;13.666;2023-05-08T09:18:27;1.48;;;1.00;;
36353;SDS011;22383;51.114;13.666;2023-05-08T09:20:58;2.80;;;1.08;;
36353;SDS011;22383;51.114;13.666;2023-05-08T09:23:27;4.00;;;0.90;;
36353;SDS011;22383;51.114;13.666;2023-05-08T09:26:00;4.55;;;1.05;;
36353;SDS011;22383;51.114;13.666;2023-05-08T09:28:27;1.98;;;1.42;;
36353;SDS011;22383;51.114;13.666;2023-05-08T09:30:55;2.50;;;1.10;;
36353;SDS011;22383;51.114;13.666;2023-05-08T09:33:27;1.27;;;0.95;;
36353;SDS011;22383;51.114;13.666;2023-05-08T09:35:57;2.03;;;1.00;;
36353;SDS011;22383;51.114;13.666;2023-05-08T09:38:36;0.85;;;0.77;;
36353;SDS011;22383;51.114;13.666;2023-05-08T09:41:12;4.05;;;0.95;;
36353;SDS011;22383;51.114;13.666;2023-05-08T09:43:42;1.65;;;1.00;;
36353;SDS011;22383;51.114;13.666;2023-05-08T09:46:23;1.50;;;1.10;;
36353;SDS011;22383;51.114;13.666;2023-05-08T09:48:57;1.17;;;0.98;;
36353;SDS011;22383;51.114;13.666;2023-05-08T09:51:34;1.95;;;1.05;;
36353;SDS011;22383;51.114;13.666;2023-05-08T09:54:04;3.13;;;1.13;;
36353;SDS011;22383;51.114;13.666;2023-05-08T09:56:43;1.05;;;0.95;;
36353;SDS011;22383;51.114;13.666;2023-05-08T09:59:26;2.05;;;1.02;;
36353;SDS011;22383;51.114;13.666;2023-05-08T10:02:00;1.65;;;1.02;;
36353;SDS011;22383;51.114;13.666;2023-05-08T10:04:42;2.20;;;1.10;;
36353;SDS011;22383;51.114;13.666;2023-05-08T10:07:09;1.83;;;1.25;;
36353;SDS011;22383;51.114;13.666;2023-05-08T10:09:56;1.77;;;0.90;;
36353;SDS011;22383;51.114;13.666;2023-05-08T10:12:29;1.08;;;0.98;;
36353;SDS011;22383;51.114;13.666;2023-05-08T10:15:00;1.48;;;0.60;;
36353;SDS011;22383;51.114;13.666;2023-05-08T10:17:39;1.73;;;1.00;;
36353;SDS011;22383;51.114;13.666;2023-05-08T10:20:13;3.63;;;1.30;;
36353;SDS011;22383;51.114;13.666;2023-05-08T10:22:47;1.52;;;1.20;;
36353;SDS011;22383;51.114;13.666;2023-05-08T10:25:22;2.10;;;1.30;;
36353;SDS011;22383;51.114;13.666;2023-05-08T10:27:58;2.20;;;1.20;;
36353;SDS011;22383;51.114;13.666;2023-05-08T10:30:41;3.50;;;1.35;;
36353;SDS011;22383;51.114;13.666;2023-05-08T10:33:13;1.42;;;1.08;;
36353;SDS011;22383;51.114;13.666;2023-05-08T10:35:47;2.58;;;1.40;;
36353;SDS011;22383;51.114;13.666;2023-05-08T10:38:15;2.40;;;1.45;;
36353;SDS011;22383;51.114;13.666;2023-05-08T10:40:43;2.35;;;1.00;;
36353;SDS011;22383;51.114;13.666;2023-05-08T10:43:17;2.20;;;1.30;;
36353;SDS011;22383;51.114;13.666;2023-05-08T10:45:45;1.77;;;1.48;;
36353;SDS011;22383;51.114;13.666;2023-05-08T10:52:05;1.30;;;1.15;;
36353;SDS011;22383;51.114;13.666;2023-05-08T10:57:19;2.30;;;1.20;;
36353;SDS011;22383;51.114;13.666;2023-05-08T10:59:49;4.15;;;1.25;;
36353;SDS011;22383;51.114;13.666;2023-05-08T11:02:16;1.20;;;0.85;;
36353;SDS011;22383;51.114;13.666;2023-05-08T11:05:13;1.65;;;1.23;;
36353;SDS011;22383;51.114;13.666;2023-05-08T11:07:59;5.63;;;1.27;;
36353;SDS011;22383;51.114;13.666;2023-05-08T11:10:29;1.85;;;1.40;;
36353;SDS011;22383;51.114;13.666;2023-05-08T11:13:06;2.40;;;1.50;;
36353;SDS011;22383;51.114;13.666;2023-05-08T11:15:37;2.28;;;1.15;;
36353;SDS011;22383;51.114;13.666;2023-05-08T11:18:07;1.27;;;0.95;;
36353;SDS011;22383;51.114;13.666;2023-05-08T11:20:58;1.50;;;0.82;;
36353;SDS011;22383;51.114;13.666;2023-05-08T11:23:37;2.72;;;1.10;;
36353;SDS011;22383;51.114;13.666;2023-05-08T11:26:11;1.90;;;1.17;;
36353;SDS011;22383;51.114;13.666;2023-05-08T11:31:21;3.03;;;1.23;;
36353;SDS011;22383;51.114;13.666;2023-05-08T11:33:51;4.03;;;1.35;;
36353;SDS011;22383;51.114;13.666;2023-05-08T11:36:19;3.42;;;0.90;;
36353;SDS011;22383;51.114;13.666;2023-05-08T11:39:04;2.20;;;1.35;;
36353;SDS011;22383;51.114;13.666;2023-05-08T11:41:36;3.55;;;1.10;;
36353;SDS011;22383;51.114;13.666;2023-05-08T11:44:22;2.88;;;1.23;;
36353;SDS011;22383;51.114;13.666;2023-05-08T11:47:02;2.83;;;0.95;;
36353;SDS011;22383;51.114;13.666;2023-05-08T11:49:31;2.95;;;1.23;;
36353;SDS011;22383;51.114;13.666;2023-05-08T11:51:58;2.00;;;1.08;;
36353;SDS011;22383;51.114;13.666;2023-05-08T11:54:31;2.33;;;1.15;;
36353;SDS011;22383;51.114;13.666;2023-05-08T11:57:01;2.75;;;1.02;;
36353;SDS011;22383;51.114;13.666;2023-05-08T11:59:33;3.03;;;1.23;;
36353;SDS011;22383;51.114;13.666;2023-05-08T12:02:02;1.60;;;0.90;;
36353;SDS011;22383;51.114;13.666;2023-05-08T12:04:42;1.70;;;0.90;;
36353;SDS011;22383;51.114;13.666;2023-05-08T12:07:16;4.57;;;1.42;;
36353;SDS011;22383;51.114;13.666;2023-05-08T12:09:45;1.75;;;1.20;;
36353;SDS011;22383;51.114;13.666;2023-05-08T12:12:17;2.30;;;1.08;;
36353;SDS011;22383;51.114;13.666;2023-05-08T12:15:10;2.70;;;1.40;;
36353;SDS011;22383;51.114;13.666;2023-05-08T12:17:39;1.40;;;1.10;;
36353;SDS011;22383;51.114;13.666;2023-05-08T12:20:13;2.90;;;1.33;;
36353;SDS011;22383;51.114;13.666;2023-05-08T12:22:50;1.92;;;1.20;;
36353;SDS011;22383;51.114;13.666;2023-05-08T12:25:18;1.45;;;1.20;;
36353;SDS011;22383;51.114;13.666;2023-05-08T12:27:57;1.45;;;1.33;;
36353;SDS011;22383;51.114;13.666;2023-05-08T12:30:25;1.80;;;1.10;;
36353;SDS011;22383;51.114;13.666;2023-05-08T12:32:58;1.85;;;1.48;;
36353;SDS011;22383;51.114;13.666;2023-05-08T12:35:30;1.75;;;1.20;;
36353;SDS011;22383;51.114;13.666;2023-05-08T12:38:01;8.70;;;1.42;;
36353;SDS011;22383;51.114;13.666;2023-05-08T12:40:39;2.33;;;1.50;;
36353;SDS011;22383;51.114;13.666;2023-05-08T12:43:12;3.88;;;1.42;;
36353;SDS011;22383;51.114;13.666;2023-05-08T12:45:43;6.88;;;1.38;;
36353;SDS011;22383;51.114;13.666;2023-05-08T12:48:19;1.83;;;1.30;;
36353;SDS011;22383;51.114;13.666;2023-05-08T12:50:50;2.10;;;0.88;;
36353;SDS011;22383;51.114;13.666;2023-05-08T12:53:20;3.25;;;1.10;;
36353;SDS011;22383;51.114;13.666;2023-05-08T12:56:01;2.05;;;1.38;;
36353;SDS011;22383;51.114;13.666;2023-05-08T12:58:30;6.78;;;1.50;;
36353;SDS011;22383;51.114;13.666;2023-05-08T13:01:03;2.72;;;1.58;;
36353;SDS011;22383;51.114;13.666;2023-05-08T13:03:33;3.10;;;1.23;;
36353;SDS011;22383;51.114;13.666;2023-05-08T13:06:01;1.20;;;1.02;;
36353;SDS011;22383;51.114;13.666;2023-05-08T13:08:37;1.88;;;1.20;;
36353;SDS011;22383;51.114;13.666;2023-05-08T13:11:05;2.63;;;1.40;;
36353;SDS011;22383;51.114;13.666;2023-05-08T13:16:04;2.58;;;1.45;;
36353;SDS011;22383;51.114;13.666;2023-05-08T13:18:32;2.67;;;1.23;;
36353;SDS011;22383;51.114;13.666;2023-05-08T13:21:03;2.03;;;1.13;;
36353;SDS011;22383;51.114;13.666;2023-05-08T13:23:30;2.08;;;1.20;;
36353;SDS011;22383;51.114;13.666;2023-05-08T13:25:57;2.15;;;1.55;;
36353;SDS011;22383;51.114;13.666;2023-05-08T13:28:27;2.65;;;1.35;;
36353;SDS011;22383;51.114;13.666;2023-05-08T13:30:57;1.92;;;1.23;;
36353;SDS011;22383;51.114;13.666;2023-05-08T13:33:29;2.05;;;1.35;;
36353;SDS011;22383;51.114;13.666;2023-05-08T13:36:07;1.73;;;1.20;;
36353;SDS011;22383;51.114;13.666;2023-05-08T13:38:39;1.65;;;1.35;;
36353;SDS011;22383;51.114;13.666;2023-05-08T13:41:07;2.65;;;1.38;;
36353;SDS011;22383;51.114;13.666;2023-05-08T13:43:34;2.95;;;1.70;;
36353;SDS011;22383;51.114;13.666;2023-05-08T13:46:05;1.90;;;1.42;;
36353;SDS011;22383;51.114;13.666;2023-05-08T13:48:37;2.25;;;1.23;;
36353;SDS011;22383;51.114;13.666;2023-05-08T13:51:08;3.08;;;1.30;;
36353;SDS011;22383;51.114;13.666;2023-05-08T13:53:39;2.13;;;1.23;;
36353;SDS011;22383;51.114;13.666;2023-05-08T13:56:06;3.53;;;1.38;;
36353;SDS011;22383;51.114;13.666;2023-05-08T13:58:38;2.35;;;1.40;;
36353;SDS011;22383;51.114;13.666;2023-05-08T14:01:06;3.13;;;1.23;;
36353;SDS011;22383;51.114;13.666;2023-05-08T14:03:53;2.63;;;1.30;;
36353;SDS011;22383;51.114;13.666;2023-05-08T14:06:21;2.28;;;1.60;;
36353;SDS011;22383;51.114;13.666;2023-05-08T14:08:49;2.33;;;1.25;;
36353;SDS011;22383;51.114;13.666;2023-05-08T14:11:22;2.13;;;1.50;;
36353;SDS011;22383;51.114;13.666;2023-05-08T14:13:55;3.30;;;1.30;;
36353;SDS011;22383;51.114;13.666;2023-05-08T14:16:23;1.88;;;1.20;;
36353;SDS011;22383;51.114;13.666;2023-05-08T14:18:50;2.53;;;1.23;;
36353;SDS011;22383;51.114;13.666;2023-05-08T14:21:17;3.28;;;1.98;;
36353;SDS011;22383;51.114;13.666;2023-05-08T14:23:44;2.92;;;1.83;;
36353;SDS011;22383;51.114;13.666;2023-05-08T14:26:15;3.05;;;1.40;;
36353;SDS011;22383;51.114;13.666;2023-05-08T14:28:42;2.28;;;1.20;;
36353;SDS011;22383;51.114;13.666;2023-05-08T14:31:10;5.05;;;1.33;;
36353;SDS011;22383;51.114;13.666;2023-05-08T14:33:39;4.70;;;1.35;;
36353;SDS011;22383;51.114;13.666;2023-05-08T14:36:07;7.00;;;1.20;;
36353;SDS011;22383;51.114;13.666;2023-05-08T14:38:34;1.80;;;1.10;;
36353;SDS011;22383;51.114;13.666;2023-05-08T14:41:04;4.55;;;1.80;;
36353;SDS011;22383;51.114;13.666;2023-05-08T14:43:34;2.88;;;1.33;;
36353;SDS011;22383;51.114;13.666;2023-05-08T14:46:11;2.17;;;1.35;;
36353;SDS011;22383;51.114;13.666;2023-05-08T14:51:14;1.58;;;1.13;;
36353;SDS011;22383;51.114;13.666;2023-05-08T14:53:41;2.60;;;1.50;;
36353;SDS011;22383;51.114;13.666;2023-05-08T14:56:11;1.83;;;1.25;;
36353;SDS011;22383;51.114;13.666;2023-05-08T14:58:40;5.03;;;1.77;;
36353;SDS011;22383;51.114;13.666;2023-05-08T15:01:08;3.25;;;1.42;;
36353;SDS011;22383;51.114;13.666;2023-05-08T15:03:35;3.58;;;1.42;;
36353;SDS011;22383;51.114;13.666;2023-05-08T15:06:02;1.77;;;1.35;;
36353;SDS011;22383;51.114;13.666;2023-05-08T15:08:30;22.50;;;1.85;;
36353;SDS011;22383;51.114;13.666;2023-05-08T15:11:00;5.13;;;1.90;;
36353;SDS011;22383;51.114;13.666;2023-05-08T15:13:28;3.53;;;1.48;;
36353;SDS011;22383;51.114;13.666;2023-05-08T15:15:57;2.30;;;1.50;;
36353;SDS011;22383;51.114;13.666;2023-05-08T15:18:27;5.60;;;1.40;;
36353;SDS011;22383;51.114;13.666;2023-05-08T15:20:55;2.63;;;1.40;;
36353;SDS011;22383;51.114;13.666;2023-05-08T15:23:24;2.88;;;1.70;;
36353;SDS011;22383;51.114;13.666;2023-05-08T15:25:55;1.75;;;1.48;;
36353;SDS011;22383;51.114;13.666;2023-05-08T15:28:22;2.40;;;1.67;;
36353;SDS011;22383;51.114;13.666;2023-05-08T15:30:49;3.80;;;1.50;;
36353;SDS011;22383;51.114;13.666;2023-05-08T15:33:17;2.30;;;1.40;;
36353;SDS011;22383;51.114;13.666;2023-05-08T15:35:45;1.98;;;1.30;;
36353;SDS011;22383;51.114;13.666;2023-05-08T15:38:16;2.92;;;1.75;;
36353;SDS011;22383;51.114;13.666;2023-05-08T15:40:44;3.67;;;1.55;;
36353;SDS011;22383;51.114;13.666;2023-05-08T15:43:14;2.63;;;1.58;;
36353;SDS011;22383;51.114;13.666;2023-05-08T15:45:49;4.90;;;1.83;;
36353;SDS011;22383;51.114;13.666;2023-05-08T15:48:22;3.72;;;1.88;;
36353;SDS011;22383;51.114;13.666;2023-05-08T15:50:52;2.65;;;1.58;;
36353;SDS011;22383;51.114;13.666;2023-05-08T15:53:24;3.83;;;1.73;;
36353;SDS011;22383;51.114;13.666;2023-05-08T15:55:54;2.67;;;1.35;;
36353;SDS011;22383;51.114;13.666;2023-05-08T15:58:26;2.92;;;1.48;;
36353;SDS011;22383;51.114;13.666;2023-05-08T16:00:53;2.33;;;1.60;;
36353;SDS011;22383;51.114;13.666;2023-05-08T16:03:22;2.25;;;1.65;;